sensor_id;sensor_type;location;lat;lon;timestamp;pressure;altitude;pressure_sealevel;temperature;humidity
74637;BME280;63141;54.616;39.754;2023-05-07T00:02:55;101190.28;;;20.15;47.70
74637;BME280;63141;54.616;39.754;2023-05-07T00:06:01;101188.53;;;20.14;48.09
74637;BME280;63141;54.616;39.754;2023-05-07T00:09:06;101190.28;;;20.13;48.01
74637;BME280;63141;54.616;39.754;2023-05-07T00:12:08;101190.28;;;20.13;47.94
74637;BME280;63141;54.616;39.754;2023-05-07T00:15:10;101192.06;;;20.14;48.21
74637;BME280;63141;54.616;39.754;2023-05-07T00:18:12;101193.84;;;20.14;48.19
74637;BME280;63141;54.616;39.754;2023-05-07T00:21:13;101194.72;;;20.13;48.04
74637;BME280;63141;54.616;39.754;2023-05-07T00:24:15;101192.06;;;20.13;48.08
74637;BME280;63141;54.616;39.754;2023-05-07T00:27:22;101194.72;;;20.13;48.29
74637;BME280;63141;54.616;39.754;2023-05-07T00:30:26;101193.84;;;20.11;48.50
74637;BME280;63141;54.616;39.754;2023-05-07T00:33:28;101203.56;;;20.12;48.24
74637;BME280;63141;54.616;39.754;2023-05-07T00:36:29;101201.78;;;20.11;48.44
74637;BME280;63141;54.616;39.754;2023-05-07T00:39:31;101200.00;;;20.11;48.53
74637;BME280;63141;54.616;39.754;2023-05-07T00:42:32;101206.22;;;20.10;48.40
74637;BME280;63141;54.616;39.754;2023-05-07T00:45:34;101197.41;;;20.09;48.53
74637;BME280;63141;54.616;39.754;2023-05-07T00:48:35;101196.56;;;20.09;48.63
74637;BME280;63141;54.616;39.754;2023-05-07T00:51:40;101203.56;;;20.10;48.45
74637;BME280;63141;54.616;39.754;2023-05-07T00:54:41;101207.09;;;20.11;48.74
74637;BME280;63141;54.616;39.754;2023-05-07T00:57:43;101196.56;;;20.09;48.56
74637;BME280;63141;54.616;39.754;2023-05-07T01:00:48;101200.94;;;20.08;48.72
74637;BME280;63141;54.616;39.754;2023-05-07T01:03:53;101206.22;;;20.08;48.76
74637;BME280;63141;54.616;39.754;2023-05-07T01:07:01;101206.22;;;20.08;48.80
74637;BME280;63141;54.616;39.754;2023-05-07T01:10:04;101211.50;;;20.08;48.75
74637;BME280;63141;54.616;39.754;2023-05-07T01:13:06;101215.06;;;20.07;48.56
74637;BME280;63141;54.616;39.754;2023-05-07T01:16:08;101210.66;;;20.08;48.73
74637;BME280;63141;54.616;39.754;2023-05-07T01:19:11;101212.44;;;20.07;48.98
74637;BME280;63141;54.616;39.754;2023-05-07T01:22:32;101217.72;;;20.07;48.98
74637;BME280;63141;54.616;39.754;2023-05-07T01:25:37;101215.06;;;20.07;48.76
74637;BME280;63141;54.616;39.754;2023-05-07T01:28:39;101221.22;;;20.08;49.08
74637;BME280;63141;54.616;39.754;2023-05-07T01:31:44;101230.94;;;20.07;48.81
74637;BME280;63141;54.616;39.754;2023-05-07T01:34:48;101229.16;;;20.06;49.11
74637;BME280;63141;54.616;39.754;2023-05-07T01:37:53;101239.75;;;20.08;49.12
74637;BME280;63141;54.616;39.754;2023-05-07T01:40:55;101238.88;;;20.06;49.05
74637;BME280;63141;54.616;39.754;2023-05-07T01:43:58;101241.53;;;20.07;49.03
74637;BME280;63141;54.616;39.754;2023-05-07T01:47:01;101237.09;;;20.06;49.04
74637;BME280;63141;54.616;39.754;2023-05-07T01:50:05;101242.41;;;20.06;49.22
74637;BME280;63141;54.616;39.754;2023-05-07T01:53:06;101241.53;;;20.06;49.17
74637;BME280;63141;54.616;39.754;2023-05-07T01:56:10;101246.81;;;20.06;49.19
74637;BME280;63141;54.616;39.754;2023-05-07T01:59:14;101250.34;;;20.06;49.08
74637;BME280;63141;54.616;39.754;2023-05-07T02:02:18;101249.47;;;20.06;49.11
74637;BME280;63141;54.616;39.754;2023-05-07T02:05:21;101250.34;;;20.06;49.13
74637;BME280;63141;54.616;39.754;2023-05-07T02:08:32;101249.47;;;20.06;49.12
74637;BME280;63141;54.616;39.754;2023-05-07T02:11:34;101247.72;;;20.05;49.37
74637;BME280;63141;54.616;39.754;2023-05-07T02:14:35;101260.03;;;20.06;49.19
74637;BME280;63141;54.616;39.754;2023-05-07T02:17:39;101266.19;;;20.06;49.07
74637;BME280;63141;54.616;39.754;2023-05-07T02:20:59;101264.47;;;20.05;49.35
74637;BME280;63141;54.616;39.754;2023-05-07T02:24:01;101263.59;;;20.05;49.18
74637;BME280;63141;54.616;39.754;2023-05-07T02:27:02;101264.47;;;20.05;49.10
74637;BME280;63141;54.616;39.754;2023-05-07T02:30:04;101270.66;;;20.04;48.93
74637;BME280;63141;54.616;39.754;2023-05-07T02:33:06;101273.31;;;20.04;49.22
74637;BME280;63141;54.616;39.754;2023-05-07T02:36:10;101273.31;;;20.04;49.37
74637;BME280;63141;54.616;39.754;2023-05-07T02:39:27;101280.34;;;20.04;49.36
74637;BME280;63141;54.616;39.754;2023-05-07T02:42:29;101289.19;;;20.04;49.28
74637;BME280;63141;54.616;39.754;2023-05-07T02:45:31;101286.53;;;20.04;49.49
74637;BME280;63141;54.616;39.754;2023-05-07T02:48:33;101290.97;;;20.02;49.35
74637;BME280;63141;54.616;39.754;2023-05-07T02:51:34;101298.91;;;20.01;49.21
74637;BME280;63141;54.616;39.754;2023-05-07T02:54:38;101286.59;;;19.97;49.30
74637;BME280;63141;54.616;39.754;2023-05-07T02:57:40;101302.50;;;19.95;49.13
74637;BME280;63141;54.616;39.754;2023-05-07T03:00:42;101296.38;;;19.93;49.50
74637;BME280;63141;54.616;39.754;2023-05-07T03:04:05;101307.84;;;19.91;49.26
74637;BME280;63141;54.616;39.754;2023-05-07T03:07:07;101300.81;;;19.90;49.20
74637;BME280;63141;54.616;39.754;2023-05-07T03:10:08;101292.88;;;19.88;48.98
74637;BME280;63141;54.616;39.754;2023-05-07T03:13:13;101308.78;;;19.86;48.74
74637;BME280;63141;54.616;39.754;2023-05-07T03:16:15;101310.56;;;19.86;48.91
74637;BME280;63141;54.616;39.754;2023-05-07T03:19:16;101313.22;;;19.86;49.00
74637;BME280;63141;54.616;39.754;2023-05-07T03:22:17;101316.72;;;19.83;49.11
74637;BME280;63141;54.616;39.754;2023-05-07T03:25:21;101317.63;;;19.84;49.27
74637;BME280;63141;54.616;39.754;2023-05-07T03:28:23;101320.28;;;19.84;49.13
74637;BME280;63141;54.616;39.754;2023-05-07T03:31:32;101314.13;;;19.82;49.44
74637;BME280;63141;54.616;39.754;2023-05-07T03:34:35;101323.78;;;19.83;49.25
74637;BME280;63141;54.616;39.754;2023-05-07T03:37:38;101322.06;;;19.82;49.38
74637;BME280;63141;54.616;39.754;2023-05-07T03:40:47;101324.69;;;19.82;49.45
74637;BME280;63141;54.616;39.754;2023-05-07T03:43:51;101326.44;;;19.83;49.34
74637;BME280;63141;54.616;39.754;2023-05-07T03:46:53;101319.41;;;19.82;49.17
74637;BME280;63141;54.616;39.754;2023-05-07T03:49:57;101322.06;;;19.82;49.37
74637;BME280;63141;54.616;39.754;2023-05-07T03:52:59;101323.84;;;19.80;49.45
74637;BME280;63141;54.616;39.754;2023-05-07T03:56:03;101333.50;;;19.81;49.54
74637;BME280;63141;54.616;39.754;2023-05-07T03:59:09;101330.00;;;19.82;49.56
74637;BME280;63141;54.616;39.754;2023-05-07T04:02:13;101332.63;;;19.82;49.34
74637;BME280;63141;54.616;39.754;2023-05-07T04:05:14;101338.78;;;19.84;49.70
74637;BME280;63141;54.616;39.754;2023-05-07T04:08:23;101344.03;;;19.87;49.53
74637;BME280;63141;54.616;39.754;2023-05-07T04:11:28;101343.09;;;19.90;49.89
74637;BME280;63141;54.616;39.754;2023-05-07T04:14:30;101351.03;;;19.91;50.43
74637;BME280;63141;54.616;39.754;2023-05-07T04:17:37;101354.53;;;19.93;50.39
74637;BME280;63141;54.616;39.754;2023-05-07T04:20:39;101349.25;;;19.93;50.85
74637;BME280;63141;54.616;39.754;2023-05-07T04:23:47;101351.00;;;19.94;51.01
74637;BME280;63141;54.616;39.754;2023-05-07T04:26:49;101351.84;;;19.96;51.30
74637;BME280;63141;54.616;39.754;2023-05-07T04:29:52;101349.19;;;19.96;51.61
74637;BME280;63141;54.616;39.754;2023-05-07T04:32:57;101350.94;;;19.97;51.74
74637;BME280;63141;54.616;39.754;2023-05-07T04:36:07;101356.22;;;19.97;51.63
74637;BME280;63141;54.616;39.754;2023-05-07T04:39:15;101353.59;;;19.97;51.86
74637;BME280;63141;54.616;39.754;2023-05-07T04:42:18;101348.28;;;19.99;52.06
74637;BME280;63141;54.616;39.754;2023-05-07T04:45:20;101353.56;;;19.99;52.47
74637;BME280;63141;54.616;39.754;2023-05-07T04:48:25;101353.56;;;19.99;52.81
74637;BME280;63141;54.616;39.754;2023-05-07T04:51:28;101356.22;;;19.97;53.07
74637;BME280;63141;54.616;39.754;2023-05-07T04:54:30;101351.84;;;19.96;53.19
74637;BME280;63141;54.616;39.754;2023-05-07T04:57:34;101351.84;;;19.96;53.55
74637;BME280;63141;54.616;39.754;2023-05-07T05:00:39;101361.56;;;19.96;53.88
74637;BME280;63141;54.616;39.754;2023-05-07T05:03:46;101358.03;;;19.95;54.18
74637;BME280;63141;54.616;39.754;2023-05-07T05:06:56;101363.34;;;19.95;54.47
74637;BME280;63141;54.616;39.754;2023-05-07T05:10:01;101367.72;;;19.95;54.37
74637;BME280;63141;54.616;39.754;2023-05-07T05:13:12;101356.28;;;19.94;54.75
74637;BME280;63141;54.616;39.754;2023-05-07T05:16:27;101368.63;;;19.95;54.72
74637;BME280;63141;54.616;39.754;2023-05-07T05:19:28;101364.22;;;19.94;54.75
74637;BME280;63141;54.616;39.754;2023-05-07T05:22:32;101362.47;;;19.93;54.84
74637;BME280;63141;54.616;39.754;2023-05-07T05:25:35;101361.56;;;19.94;54.82
74637;BME280;63141;54.616;39.754;2023-05-07T05:28:36;101362.44;;;19.95;54.66
74637;BME280;63141;54.616;39.754;2023-05-07T05:31:50;101357.19;;;19.93;54.44
74637;BME280;63141;54.616;39.754;2023-05-07T05:34:56;101354.53;;;19.93;54.31
74637;BME280;63141;54.616;39.754;2023-05-07T05:38:06;101361.56;;;19.94;54.11
74637;BME280;63141;54.616;39.754;2023-05-07T05:41:14;101361.56;;;19.94;53.86
74637;BME280;63141;54.616;39.754;2023-05-07T05:44:19;101365.97;;;19.95;53.73
74637;BME280;63141;54.616;39.754;2023-05-07T05:47:23;101370.34;;;19.96;53.60
74637;BME280;63141;54.616;39.754;2023-05-07T05:50:37;101370.34;;;19.96;53.53
74637;BME280;63141;54.616;39.754;2023-05-07T05:53:45;101375.66;;;19.96;53.27
74637;BME280;63141;54.616;39.754;2023-05-07T05:56:55;101374.75;;;19.97;53.28
74637;BME280;63141;54.616;39.754;2023-05-07T06:00:13;101373.88;;;19.98;52.99
74637;BME280;63141;54.616;39.754;2023-05-07T06:03:23;101384.44;;;19.98;53.04
74637;BME280;63141;54.616;39.754;2023-05-07T06:06:25;101386.22;;;19.98;52.79
74637;BME280;63141;54.616;39.754;2023-05-07T06:09:29;101381.78;;;19.98;52.77
74637;BME280;63141;54.616;39.754;2023-05-07T06:12:37;101384.44;;;19.97;52.77
74637;BME280;63141;54.616;39.754;2023-05-07T06:15:47;101383.59;;;19.96;52.58
74637;BME280;63141;54.616;39.754;2023-05-07T06:19:03;101390.59;;;19.99;52.21
74637;BME280;63141;54.616;39.754;2023-05-07T06:22:26;101388.81;;;19.99;52.16
74637;BME280;63141;54.616;39.754;2023-05-07T06:25:32;101391.47;;;19.99;52.25
74637;BME280;63141;54.616;39.754;2023-05-07T06:28:48;101393.25;;;20.00;51.66
74637;BME280;63141;54.616;39.754;2023-05-07T06:32:11;101383.53;;;20.01;51.52
74637;BME280;63141;54.616;39.754;2023-05-07T06:35:17;101389.69;;;20.01;51.04
74637;BME280;63141;54.616;39.754;2023-05-07T06:38:22;101388.81;;;20.02;51.56
74637;BME280;63141;54.616;39.754;2023-05-07T06:41:27;101387.91;;;20.03;51.68
74637;BME280;63141;54.616;39.754;2023-05-07T06:44:46;101393.16;;;20.06;51.92
74637;BME280;63141;54.616;39.754;2023-05-07T06:47:55;101394.91;;;20.07;52.12
74637;BME280;63141;54.616;39.754;2023-05-07T06:51:10;101390.50;;;20.09;51.84
74637;BME280;63141;54.616;39.754;2023-05-07T06:54:22;101393.13;;;20.09;51.66
74637;BME280;63141;54.616;39.754;2023-05-07T06:57:33;101386.94;;;20.11;51.54
74637;BME280;63141;54.616;39.754;2023-05-07T07:00:40;101389.56;;;20.12;51.43
74637;BME280;63141;54.616;39.754;2023-05-07T07:03:50;101388.66;;;20.13;51.30
74637;BME280;63141;54.616;39.754;2023-05-07T07:07:05;101391.31;;;20.15;51.07
74637;BME280;63141;54.616;39.754;2023-05-07T07:10:24;101388.66;;;20.15;51.00
74637;BME280;63141;54.616;39.754;2023-05-07T07:13:31;101390.44;;;20.14;50.78
74637;BME280;63141;54.616;39.754;2023-05-07T07:16:39;101390.41;;;20.16;50.61
74637;BME280;63141;54.616;39.754;2023-05-07T07:19:55;101391.25;;;20.18;50.96
74637;BME280;63141;54.616;39.754;2023-05-07T07:22:59;101394.75;;;20.20;50.70
74637;BME280;63141;54.616;39.754;2023-05-07T07:26:09;101387.69;;;20.22;50.69
74637;BME280;63141;54.616;39.754;2023-05-07T07:29:14;101385.94;;;20.21;50.51
74637;BME280;63141;54.616;39.754;2023-05-07T07:32:20;101382.38;;;20.22;50.32
74637;BME280;63141;54.616;39.754;2023-05-07T07:35:37;101389.44;;;20.23;50.29
74637;BME280;63141;54.616;39.754;2023-05-07T07:39:16;101379.75;;;20.23;50.37
74637;BME280;63141;54.616;39.754;2023-05-07T07:42:27;101385.91;;;20.24;49.96
74637;BME280;63141;54.616;39.754;2023-05-07T07:45:50;101385.03;;;20.23;49.98
74637;BME280;63141;54.616;39.754;2023-05-07T07:48:52;101375.31;;;20.25;49.99
74637;BME280;63141;54.616;39.754;2023-05-07T07:51:54;101384.13;;;20.26;49.70
74637;BME280;63141;54.616;39.754;2023-05-07T07:55:01;101377.94;;;20.25;49.93
74637;BME280;63141;54.616;39.754;2023-05-07T07:58:17;101382.38;;;20.25;49.71
74637;BME280;63141;54.616;39.754;2023-05-07T08:01:22;101373.56;;;20.23;49.80
74637;BME280;63141;54.616;39.754;2023-05-07T08:04:33;101377.97;;;20.24;49.94
74637;BME280;63141;54.616;39.754;2023-05-07T08:07:47;101373.53;;;20.26;49.89
74637;BME280;63141;54.616;39.754;2023-05-07T08:11:05;101371.75;;;20.28;50.18
74637;BME280;63141;54.616;39.754;2023-05-07T08:14:11;101369.97;;;20.30;50.20
74637;BME280;63141;54.616;39.754;2023-05-07T08:17:45;101367.28;;;20.32;50.61
74637;BME280;63141;54.616;39.754;2023-05-07T08:20:49;101364.63;;;20.33;50.88
74637;BME280;63141;54.616;39.754;2023-05-07T08:23:57;101362.88;;;20.32;51.21
74637;BME280;63141;54.616;39.754;2023-05-07T08:27:20;101371.69;;;20.34;51.30
74637;BME280;63141;54.616;39.754;2023-05-07T08:30:42;101373.41;;;20.35;51.28
74637;BME280;63141;54.616;39.754;2023-05-07T08:33:57;101369.03;;;20.34;51.19
74637;BME280;63141;54.616;39.754;2023-05-07T08:41:04;101368.13;;;20.35;51.04
74637;BME280;63141;54.616;39.754;2023-05-07T08:44:12;101371.69;;;20.34;51.06
74637;BME280;63141;54.616;39.754;2023-05-07T08:47:18;101376.06;;;20.34;50.94
74637;BME280;63141;54.616;39.754;2023-05-07T08:50:42;101376.06;;;20.35;50.93
74637;BME280;63141;54.616;39.754;2023-05-07T08:53:59;101376.88;;;20.40;51.04
74637;BME280;63141;54.616;39.754;2023-05-07T08:57:09;101375.06;;;20.42;50.43
74637;BME280;63141;54.616;39.754;2023-05-07T09:00:28;101362.75;;;20.41;50.08
74637;BME280;63141;54.616;39.754;2023-05-07T09:03:46;101371.56;;;20.40;49.96
74637;BME280;63141;54.616;39.754;2023-05-07T09:06:59;101373.34;;;20.38;49.90
74637;BME280;63141;54.616;39.754;2023-05-07T09:10:13;101375.16;;;20.36;49.42
74637;BME280;63141;54.616;39.754;2023-05-07T09:13:18;101374.31;;;20.34;49.19
74637;BME280;63141;54.616;39.754;2023-05-07T09:16:28;101375.19;;;20.35;49.04
74637;BME280;63141;54.616;39.754;2023-05-07T09:19:49;101378.75;;;20.32;48.64
74637;BME280;63141;54.616;39.754;2023-05-07T09:22:58;101376.97;;;20.31;48.65
74637;BME280;63141;54.616;39.754;2023-05-07T09:26:06;101376.97;;;20.31;48.51
74637;BME280;63141;54.616;39.754;2023-05-07T09:29:30;101374.34;;;20.31;48.52
74637;BME280;63141;54.616;39.754;2023-05-07T09:32:43;101372.59;;;20.30;48.51
74637;BME280;63141;54.616;39.754;2023-05-07T09:36:01;101377.03;;;20.28;48.50
74637;BME280;63141;54.616;39.754;2023-05-07T09:39:15;101389.41;;;20.26;48.22
74637;BME280;63141;54.616;39.754;2023-05-07T09:42:23;101388.53;;;20.24;48.31
74637;BME280;63141;54.616;39.754;2023-05-07T09:45:37;101382.38;;;20.22;48.38
74637;BME280;63141;54.616;39.754;2023-05-07T09:48:48;101381.53;;;20.20;48.53
74637;BME280;63141;54.616;39.754;2023-05-07T09:51:51;101384.19;;;20.20;48.34
74637;BME280;63141;54.616;39.754;2023-05-07T09:55:07;101385.09;;;20.17;48.35
74637;BME280;63141;54.616;39.754;2023-05-07T09:58:12;101380.72;;;20.15;48.25
74637;BME280;63141;54.616;39.754;2023-05-07T10:01:38;101382.50;;;20.14;48.43
74637;BME280;63141;54.616;39.754;2023-05-07T10:04:50;101384.28;;;20.14;48.07
74637;BME280;63141;54.616;39.754;2023-05-07T10:08:02;101385.16;;;20.13;47.88
74637;BME280;63141;54.616;39.754;2023-05-07T10:11:40;101388.72;;;20.10;47.96
74637;BME280;63141;54.616;39.754;2023-05-07T10:14:55;101386.06;;;20.12;47.81
74637;BME280;63141;54.616;39.754;2023-05-07T10:18:06;101382.56;;;20.09;47.60
74637;BME280;63141;54.616;39.754;2023-05-07T10:21:18;101375.50;;;20.08;47.81
74637;BME280;63141;54.616;39.754;2023-05-07T10:24:34;101376.41;;;20.07;47.69
74637;BME280;63141;54.616;39.754;2023-05-07T10:27:50;101377.28;;;20.06;47.58
74637;BME280;63141;54.616;39.754;2023-05-07T10:34:49;101376.44;;;20.04;47.51
74637;BME280;63141;54.616;39.754;2023-05-07T10:37:52;101387.91;;;20.03;47.30
74637;BME280;63141;54.616;39.754;2023-05-07T10:41:02;101377.31;;;20.03;47.27
74637;BME280;63141;54.616;39.754;2023-05-07T10:44:08;101379.09;;;20.01;47.31
74637;BME280;63141;54.616;39.754;2023-05-07T10:47:25;101373.81;;;20.01;47.14
74637;BME280;63141;54.616;39.754;2023-05-07T10:50:40;101378.25;;;20.01;46.96
74637;BME280;63141;54.616;39.754;2023-05-07T11:01:01;101378.28;;;19.98;46.67
74637;BME280;63141;54.616;39.754;2023-05-07T11:04:16;101384.44;;;19.98;46.98
74637;BME280;63141;54.616;39.754;2023-05-07T11:07:55;101388.88;;;19.96;46.73
74637;BME280;63141;54.616;39.754;2023-05-07T11:11:43;101385.34;;;19.96;46.69
74637;BME280;63141;54.616;39.754;2023-05-07T11:15:09;101380.06;;;19.94;46.60
74637;BME280;63141;54.616;39.754;2023-05-07T11:18:45;101380.97;;;19.93;46.56
74637;BME280;63141;54.616;39.754;2023-05-07T11:26:02;101384.50;;;19.92;46.43
74637;BME280;63141;54.616;39.754;2023-05-07T11:29:17;101380.13;;;19.91;46.37
74637;BME280;63141;54.616;39.754;2023-05-07T11:32:32;101382.75;;;19.91;46.36
74637;BME280;63141;54.616;39.754;2023-05-07T11:35:57;101386.28;;;19.90;46.46
74637;BME280;63141;54.616;39.754;2023-05-07T11:39:31;101381.00;;;19.90;46.25
74637;BME280;63141;54.616;39.754;2023-05-07T11:42:38;101394.25;;;19.88;46.25
74637;BME280;63141;54.616;39.754;2023-05-07T11:45:46;101383.69;;;19.88;46.21
74637;BME280;63141;54.616;39.754;2023-05-07T11:48:50;101382.78;;;19.88;46.08
74637;BME280;63141;54.616;39.754;2023-05-07T11:52:20;101395.13;;;19.89;46.03
74637;BME280;63141;54.616;39.754;2023-05-07T11:55:30;101391.63;;;19.87;46.02
74637;BME280;63141;54.616;39.754;2023-05-07T11:58:35;101385.41;;;19.88;46.08
74637;BME280;63141;54.616;39.754;2023-05-07T12:01:57;101378.41;;;19.87;45.89
74637;BME280;63141;54.616;39.754;2023-05-07T12:05:23;101386.31;;;19.87;45.90
74637;BME280;63141;54.616;39.754;2023-05-07T12:08:58;101380.19;;;19.83;45.74
74637;BME280;63141;54.616;39.754;2023-05-07T12:12:29;101386.38;;;19.84;45.79
74637;BME280;63141;54.616;39.754;2023-05-07T12:15:36;101384.59;;;19.83;45.87
74637;BME280;63141;54.616;39.754;2023-05-07T12:18:50;101382.88;;;19.82;45.67
74637;BME280;63141;54.616;39.754;2023-05-07T12:22:07;101382.88;;;19.82;45.58
74637;BME280;63141;54.616;39.754;2023-05-07T12:25:19;101396.09;;;19.82;45.81
74637;BME280;63141;54.616;39.754;2023-05-07T12:28:29;101392.56;;;19.81;45.35
74637;BME280;63141;54.616;39.754;2023-05-07T12:31:55;101399.59;;;19.81;45.50
74637;BME280;63141;54.616;39.754;2023-05-07T12:35:06;101385.53;;;19.79;45.46
74637;BME280;63141;54.616;39.754;2023-05-07T12:38:32;101393.44;;;19.79;45.43
74637;BME280;63141;54.616;39.754;2023-05-07T12:42:19;101392.56;;;19.78;45.56
74637;BME280;63141;54.616;39.754;2023-05-07T12:45:37;101392.56;;;19.78;45.46
74637;BME280;63141;54.616;39.754;2023-05-07T12:48:47;101394.34;;;19.78;45.42
74637;BME280;63141;54.616;39.754;2023-05-07T12:52:04;101395.22;;;19.77;45.43
74637;BME280;63141;54.616;39.754;2023-05-07T12:55:09;101382.00;;;19.77;45.41
74637;BME280;63141;54.616;39.754;2023-05-07T12:58:27;101391.72;;;19.76;45.47
74637;BME280;63141;54.616;39.754;2023-05-07T13:01:53;101397.00;;;19.76;45.43
74637;BME280;63141;54.616;39.754;2023-05-07T13:04:57;101396.13;;;19.76;45.42
74637;BME280;63141;54.616;39.754;2023-05-07T13:08:37;101393.50;;;19.76;45.04
74637;BME280;63141;54.616;39.754;2023-05-07T13:11:41;101386.47;;;19.75;45.32
74637;BME280;63141;54.616;39.754;2023-05-07T13:14:57;101389.13;;;19.73;45.28
74637;BME280;63141;54.616;39.754;2023-05-07T13:18:04;101390.00;;;19.72;45.05
74637;BME280;63141;54.616;39.754;2023-05-07T13:21:08;101390.88;;;19.73;45.15
74637;BME280;63141;54.616;39.754;2023-05-07T13:24:16;101393.53;;;19.73;45.03
74637;BME280;63141;54.616;39.754;2023-05-07T13:27:33;101387.38;;;19.71;44.99
74637;BME280;63141;54.616;39.754;2023-05-07T13:31:17;101390.03;;;19.71;45.16
74637;BME280;63141;54.616;39.754;2023-05-07T13:34:22;101398.81;;;19.71;45.20
74637;BME280;63141;54.616;39.754;2023-05-07T13:37:50;101394.44;;;19.70;45.11
74637;BME280;63141;54.616;39.754;2023-05-07T13:41:11;101391.81;;;19.70;45.29
74637;BME280;63141;54.616;39.754;2023-05-07T13:44:21;101386.50;;;19.70;44.98
74637;BME280;63141;54.616;39.754;2023-05-07T13:47:53;101389.16;;;19.69;45.02
74637;BME280;63141;54.616;39.754;2023-05-07T13:50:57;101391.81;;;19.69;44.84
74637;BME280;63141;54.616;39.754;2023-05-07T13:53:58;101401.47;;;19.68;44.93
74637;BME280;63141;54.616;39.754;2023-05-07T13:57:08;101391.81;;;19.69;44.99
74637;BME280;63141;54.616;39.754;2023-05-07T14:00:48;101393.56;;;19.66;45.01
74637;BME280;63141;54.616;39.754;2023-05-07T14:04:02;101397.94;;;19.67;45.03
74637;BME280;63141;54.616;39.754;2023-05-07T14:07:11;101391.81;;;19.65;45.08
74637;BME280;63141;54.616;39.754;2023-05-07T14:10:33;101391.81;;;19.65;44.84
74637;BME280;63141;54.616;39.754;2023-05-07T14:13:41;101393.56;;;19.65;44.83
74637;BME280;63141;54.616;39.754;2023-05-07T14:16:49;101397.97;;;19.64;44.95
74637;BME280;63141;54.616;39.754;2023-05-07T14:20:02;101387.41;;;19.64;44.98
74637;BME280;63141;54.616;39.754;2023-05-07T14:23:18;101389.19;;;19.64;44.82
74637;BME280;63141;54.616;39.754;2023-05-07T14:26:35;101385.66;;;19.62;44.85
74637;BME280;63141;54.616;39.754;2023-05-07T14:29:48;101386.53;;;19.62;44.85
74637;BME280;63141;54.616;39.754;2023-05-07T14:33:13;101387.44;;;19.61;44.97
74637;BME280;63141;54.616;39.754;2023-05-07T14:36:35;101381.25;;;19.62;44.64
74637;BME280;63141;54.616;39.754;2023-05-07T14:39:39;101385.66;;;19.60;44.65
74637;BME280;63141;54.616;39.754;2023-05-07T14:42:55;101378.66;;;19.61;44.67
74637;BME280;63141;54.616;39.754;2023-05-07T14:46:15;101383.94;;;19.59;44.77
74637;BME280;63141;54.616;39.754;2023-05-07T14:49:26;101377.75;;;19.60;44.49
74637;BME280;63141;54.616;39.754;2023-05-07T14:52:30;101381.28;;;19.59;44.57
74637;BME280;63141;54.616;39.754;2023-05-07T14:55:41;101370.72;;;19.59;44.55
74637;BME280;63141;54.616;39.754;2023-05-07T14:59:13;101379.53;;;19.58;44.77
74637;BME280;63141;54.616;39.754;2023-05-07T15:02:46;101373.38;;;19.59;44.54
74637;BME280;63141;54.616;39.754;2023-05-07T15:06:23;101375.13;;;19.59;44.38
74637;BME280;63141;54.616;39.754;2023-05-07T15:09:42;101374.22;;;19.58;44.38
74637;BME280;63141;54.616;39.754;2023-05-07T15:12:50;101376.88;;;19.58;44.42
74637;BME280;63141;54.616;39.754;2023-05-07T15:16:09;101367.22;;;19.57;44.60
74637;BME280;63141;54.616;39.754;2023-05-07T15:19:13;101376.00;;;19.58;43.91
74637;BME280;63141;54.616;39.754;2023-05-07T15:22:21;101380.44;;;19.57;44.18
74637;BME280;63141;54.616;39.754;2023-05-07T15:28:57;101383.06;;;19.57;44.34
74637;BME280;63141;54.616;39.754;2023-05-07T15:32:10;101383.97;;;19.56;44.33
74637;BME280;63141;54.616;39.754;2023-05-07T15:35:20;101380.44;;;19.56;44.09
74637;BME280;63141;54.616;39.754;2023-05-07T15:38:37;101381.34;;;19.56;44.00
74637;BME280;63141;54.616;39.754;2023-05-07T15:41:42;101386.63;;;19.56;44.14
74637;BME280;63141;54.616;39.754;2023-05-07T15:44:52;101387.50;;;19.55;43.93
74637;BME280;63141;54.616;39.754;2023-05-07T15:47:59;101389.25;;;19.55;44.07
74637;BME280;63141;54.616;39.754;2023-05-07T15:51:03;101381.34;;;19.53;43.94
74637;BME280;63141;54.616;39.754;2023-05-07T15:54:15;101383.13;;;19.53;44.30
74637;BME280;63141;54.616;39.754;2023-05-07T15:57:27;101388.41;;;19.54;43.94
74637;BME280;63141;54.616;39.754;2023-05-07T16:00:37;101380.47;;;19.51;43.82
74637;BME280;63141;54.616;39.754;2023-05-07T16:03:57;101387.53;;;19.49;43.90
74637;BME280;63141;54.616;39.754;2023-05-07T16:07:13;101393.72;;;19.48;42.26
74637;BME280;63141;54.616;39.754;2023-05-07T16:10:17;101392.00;;;19.44;41.03
74637;BME280;63141;54.616;39.754;2023-05-07T16:13:36;101392.91;;;19.40;39.85
74637;BME280;63141;54.616;39.754;2023-05-07T16:16:55;101392.94;;;19.37;38.99
74637;BME280;63141;54.616;39.754;2023-05-07T16:20:01;101395.63;;;19.34;38.92
74637;BME280;63141;54.616;39.754;2023-05-07T16:23:15;101404.41;;;19.33;38.26
74637;BME280;63141;54.616;39.754;2023-05-07T16:26:28;101400.03;;;19.32;37.73
74637;BME280;63141;54.616;39.754;2023-05-07T16:29:50;101406.19;;;19.31;37.53
74637;BME280;63141;54.616;39.754;2023-05-07T16:32:57;101415.03;;;19.30;37.27
74637;BME280;63141;54.616;39.754;2023-05-07T16:36:01;101410.59;;;19.29;37.09
74637;BME280;63141;54.616;39.754;2023-05-07T16:39:11;101420.31;;;19.30;36.84
74637;BME280;63141;54.616;39.754;2023-05-07T16:42:24;101420.31;;;19.30;36.71
74637;BME280;63141;54.616;39.754;2023-05-07T16:45:43;101423.81;;;19.32;36.64
74637;BME280;63141;54.616;39.754;2023-05-07T16:48:50;101429.09;;;19.32;36.69